sensor_id;sensor_type;location;lat;lon;timestamp;P1;durP1;ratioP1;P2;durP2;ratioP2
11827;SDS011;5971;49.646;8.568;2022-08-18T00:00:36;7.65;;;4.35;;
11827;SDS011;5971;49.646;8.568;2022-08-18T00:03:39;6.93;;;4.30;;
11827;SDS011;5971;49.646;8.568;2022-08-18T00:06:59;7.00;;;4.22;;
11827;SDS011;5971;49.646;8.568;2022-08-18T00:10:01;9.38;;;4.72;;
11827;SDS011;5971;49.646;8.568;2022-08-18T00:13:03;6.18;;;4.18;;
11827;SDS011;5971;49.646;8.568;2022-08-18T00:16:04;7.35;;;4.38;;
11827;SDS011;5971;49.646;8.568;2022-08-18T00:19:06;7.72;;;4.35;;
11827;SDS011;5971;49.646;8.568;2022-08-18T00:22:11;7.47;;;4.38;;
11827;SDS011;5971;49.646;8.568;2022-08-18T00:25:16;6.63;;;4.15;;
11827;SDS011;5971;49.646;8.568;2022-08-18T00:28:17;6.25;;;3.85;;
11827;SDS011;5971;49.646;8.568;2022-08-18T00:31:24;6.28;;;4.07;;
11827;SDS011;5971;49.646;8.568;2022-08-18T00:34:26;6.60;;;4.07;;
11827;SDS011;5971;49.646;8.568;2022-08-18T00:37:32;6.15;;;3.72;;
11827;SDS011;5971;49.646;8.568;2022-08-18T00:40:39;5.80;;;3.70;;
11827;SDS011;5971;49.646;8.568;2022-08-18T00:43:45;7.38;;;4.13;;
11827;SDS011;5971;49.646;8.568;2022-08-18T00:46:46;5.78;;;3.58;;
11827;SDS011;5971;49.646;8.568;2022-08-18T00:49:49;5.78;;;3.35;;
11827;SDS011;5971;49.646;8.568;2022-08-18T00:52:53;5.93;;;3.72;;
11827;SDS011;5971;49.646;8.568;2022-08-18T00:55:57;6.65;;;4.00;;
11827;SDS011;5971;49.646;8.568;2022-08-18T00:59:10;5.22;;;3.15;;
11827;SDS011;5971;49.646;8.568;2022-08-18T01:02:36;6.00;;;3.60;;
11827;SDS011;5971;49.646;8.568;2022-08-18T01:05:41;5.15;;;3.08;;
11827;SDS011;5971;49.646;8.568;2022-08-18T01:08:43;5.43;;;3.45;;
11827;SDS011;5971;49.646;8.568;2022-08-18T01:11:46;6.20;;;3.85;;
11827;SDS011;5971;49.646;8.568;2022-08-18T01:14:47;4.70;;;3.10;;
11827;SDS011;5971;49.646;8.568;2022-08-18T01:17:49;5.57;;;3.30;;
11827;SDS011;5971;49.646;8.568;2022-08-18T01:21:20;5.60;;;3.25;;
11827;SDS011;5971;49.646;8.568;2022-08-18T01:24:40;5.68;;;3.22;;
11827;SDS011;5971;49.646;8.568;2022-08-18T01:28:00;5.60;;;3.30;;
11827;SDS011;5971;49.646;8.568;2022-08-18T01:31:03;5.97;;;3.20;;
11827;SDS011;5971;49.646;8.568;2022-08-18T01:34:06;6.97;;;3.00;;
11827;SDS011;5971;49.646;8.568;2022-08-18T01:37:07;5.10;;;3.20;;
11827;SDS011;5971;49.646;8.568;2022-08-18T01:40:11;5.32;;;2.90;;
11827;SDS011;5971;49.646;8.568;2022-08-18T01:43:33;5.78;;;3.15;;
11827;SDS011;5971;49.646;8.568;2022-08-18T01:46:34;5.22;;;3.30;;
11827;SDS011;5971;49.646;8.568;2022-08-18T01:49:36;6.28;;;3.60;;
11827;SDS011;5971;49.646;8.568;2022-08-18T01:52:38;5.25;;;3.00;;
11827;SDS011;5971;49.646;8.568;2022-08-18T01:55:40;7.07;;;3.08;;
11827;SDS011;5971;49.646;8.568;2022-08-18T01:58:45;4.82;;;2.83;;
11827;SDS011;5971;49.646;8.568;2022-08-18T02:01:48;5.28;;;2.85;;
11827;SDS011;5971;49.646;8.568;2022-08-18T02:04:54;5.45;;;2.70;;
11827;SDS011;5971;49.646;8.568;2022-08-18T02:07:56;4.88;;;2.75;;
11827;SDS011;5971;49.646;8.568;2022-08-18T02:10:57;6.60;;;3.13;;
11827;SDS011;5971;49.646;8.568;2022-08-18T02:13:59;5.18;;;2.70;;
11827;SDS011;5971;49.646;8.568;2022-08-18T02:17:01;5.13;;;2.67;;
11827;SDS011;5971;49.646;8.568;2022-08-18T02:20:03;4.90;;;3.13;;
11827;SDS011;5971;49.646;8.568;2022-08-18T02:23:04;4.45;;;2.75;;
11827;SDS011;5971;49.646;8.568;2022-08-18T02:26:06;4.72;;;2.80;;
11827;SDS011;5971;49.646;8.568;2022-08-18T02:29:08;4.90;;;2.67;;
11827;SDS011;5971;49.646;8.568;2022-08-18T02:32:10;4.97;;;3.25;;
11827;SDS011;5971;49.646;8.568;2022-08-18T02:35:11;5.82;;;3.30;;
11827;SDS011;5971;49.646;8.568;2022-08-18T02:38:12;5.10;;;3.08;;
11827;SDS011;5971;49.646;8.568;2022-08-18T02:41:17;4.80;;;2.88;;
11827;SDS011;5971;49.646;8.568;2022-08-18T02:44:20;6.10;;;3.20;;
11827;SDS011;5971;49.646;8.568;2022-08-18T02:47:21;6.68;;;3.03;;
11827;SDS011;5971;49.646;8.568;2022-08-18T02:50:23;6.57;;;3.10;;
11827;SDS011;5971;49.646;8.568;2022-08-18T02:53:25;5.22;;;2.80;;
11827;SDS011;5971;49.646;8.568;2022-08-18T02:56:28;5.95;;;3.30;;
11827;SDS011;5971;49.646;8.568;2022-08-18T02:59:40;4.20;;;2.45;;
11827;SDS011;5971;49.646;8.568;2022-08-18T03:02:48;4.30;;;2.67;;
11827;SDS011;5971;49.646;8.568;2022-08-18T03:08:52;4.55;;;2.50;;
11827;SDS011;5971;49.646;8.568;2022-08-18T03:11:54;4.25;;;2.60;;
11827;SDS011;5971;49.646;8.568;2022-08-18T03:14:56;4.97;;;2.88;;
11827;SDS011;5971;49.646;8.568;2022-08-18T03:17:57;5.72;;;2.92;;
11827;SDS011;5971;49.646;8.568;2022-08-18T03:21:08;4.93;;;2.83;;
11827;SDS011;5971;49.646;8.568;2022-08-18T03:24:10;5.47;;;3.28;;
11827;SDS011;5971;49.646;8.568;2022-08-18T03:27:12;6.70;;;3.03;;
11827;SDS011;5971;49.646;8.568;2022-08-18T03:30:13;5.55;;;3.00;;
11827;SDS011;5971;49.646;8.568;2022-08-18T03:33:15;6.93;;;3.25;;
11827;SDS011;5971;49.646;8.568;2022-08-18T03:36:17;5.43;;;2.85;;
11827;SDS011;5971;49.646;8.568;2022-08-18T03:39:19;5.40;;;2.95;;
11827;SDS011;5971;49.646;8.568;2022-08-18T03:42:23;5.18;;;2.92;;
11827;SDS011;5971;49.646;8.568;2022-08-18T03:45:25;5.00;;;2.80;;
11827;SDS011;5971;49.646;8.568;2022-08-18T03:48:32;6.13;;;3.25;;
11827;SDS011;5971;49.646;8.568;2022-08-18T03:51:33;6.13;;;2.90;;
11827;SDS011;5971;49.646;8.568;2022-08-18T03:54:35;4.88;;;2.78;;
11827;SDS011;5971;49.646;8.568;2022-08-18T03:57:38;4.85;;;2.90;;
11827;SDS011;5971;49.646;8.568;2022-08-18T04:00:40;5.68;;;2.97;;
11827;SDS011;5971;49.646;8.568;2022-08-18T04:03:42;5.47;;;3.03;;
11827;SDS011;5971;49.646;8.568;2022-08-18T04:06:48;5.05;;;2.88;;
11827;SDS011;5971;49.646;8.568;2022-08-18T04:09:50;6.25;;;3.35;;
11827;SDS011;5971;49.646;8.568;2022-08-18T04:12:51;5.45;;;3.03;;
11827;SDS011;5971;49.646;8.568;2022-08-18T04:15:53;4.75;;;2.58;;
11827;SDS011;5971;49.646;8.568;2022-08-18T04:18:54;5.68;;;3.03;;
11827;SDS011;5971;49.646;8.568;2022-08-18T04:22:01;7.88;;;3.20;;
11827;SDS011;5971;49.646;8.568;2022-08-18T04:25:05;6.72;;;3.20;;
11827;SDS011;5971;49.646;8.568;2022-08-18T04:28:09;5.65;;;3.38;;
11827;SDS011;5971;49.646;8.568;2022-08-18T04:31:11;6.53;;;3.63;;
11827;SDS011;5971;49.646;8.568;2022-08-18T04:34:13;5.53;;;3.13;;
11827;SDS011;5971;49.646;8.568;2022-08-18T04:37:15;5.72;;;3.83;;
11827;SDS011;5971;49.646;8.568;2022-08-18T04:40:16;5.30;;;3.25;;
11827;SDS011;5971;49.646;8.568;2022-08-18T04:43:25;7.13;;;3.45;;
11827;SDS011;5971;49.646;8.568;2022-08-18T04:46:26;6.20;;;3.10;;
11827;SDS011;5971;49.646;8.568;2022-08-18T04:49:28;6.05;;;3.22;;
11827;SDS011;5971;49.646;8.568;2022-08-18T04:52:30;5.85;;;3.40;;
11827;SDS011;5971;49.646;8.568;2022-08-18T04:55:51;5.70;;;3.40;;
11827;SDS011;5971;49.646;8.568;2022-08-18T04:58:58;5.20;;;3.13;;
11827;SDS011;5971;49.646;8.568;2022-08-18T05:02:00;7.20;;;3.35;;
11827;SDS011;5971;49.646;8.568;2022-08-18T05:05:01;5.93;;;3.30;;
11827;SDS011;5971;49.646;8.568;2022-08-18T05:08:04;6.03;;;3.22;;
11827;SDS011;5971;49.646;8.568;2022-08-18T05:11:05;5.95;;;3.15;;
11827;SDS011;5971;49.646;8.568;2022-08-18T05:14:07;6.97;;;3.50;;
11827;SDS011;5971;49.646;8.568;2022-08-18T05:17:08;5.30;;;3.15;;
11827;SDS011;5971;49.646;8.568;2022-08-18T05:20:10;7.20;;;3.60;;
11827;SDS011;5971;49.646;8.568;2022-08-18T05:23:11;5.75;;;3.08;;
11827;SDS011;5971;49.646;8.568;2022-08-18T05:26:13;6.60;;;3.60;;
11827;SDS011;5971;49.646;8.568;2022-08-18T05:29:15;5.50;;;3.42;;
11827;SDS011;5971;49.646;8.568;2022-08-18T05:32:19;6.82;;;3.40;;
11827;SDS011;5971;49.646;8.568;2022-08-18T05:35:50;6.82;;;3.38;;
11827;SDS011;5971;49.646;8.568;2022-08-18T05:39:29;6.28;;;3.35;;
11827;SDS011;5971;49.646;8.568;2022-08-18T05:42:22;5.50;;;3.05;;
11827;SDS011;5971;49.646;8.568;2022-08-18T05:45:25;5.85;;;3.55;;
11827;SDS011;5971;49.646;8.568;2022-08-18T05:48:27;5.68;;;3.35;;
11827;SDS011;5971;49.646;8.568;2022-08-18T05:51:30;5.82;;;3.35;;
11827;SDS011;5971;49.646;8.568;2022-08-18T05:54:41;8.02;;;3.38;;
11827;SDS011;5971;49.646;8.568;2022-08-18T05:58:07;6.55;;;3.42;;
11827;SDS011;5971;49.646;8.568;2022-08-18T06:01:43;6.63;;;3.55;;
11827;SDS011;5971;49.646;8.568;2022-08-18T06:04:42;5.80;;;3.60;;
11827;SDS011;5971;49.646;8.568;2022-08-18T06:07:48;5.60;;;3.20;;
11827;SDS011;5971;49.646;8.568;2022-08-18T06:10:51;7.47;;;4.15;;
11827;SDS011;5971;49.646;8.568;2022-08-18T06:13:52;9.70;;;3.70;;
11827;SDS011;5971;49.646;8.568;2022-08-18T06:17:09;5.43;;;3.63;;
11827;SDS011;5971;49.646;8.568;2022-08-18T06:26:24;6.93;;;3.70;;
11827;SDS011;5971;49.646;8.568;2022-08-18T06:32:59;8.73;;;3.70;;
11827;SDS011;5971;49.646;8.568;2022-08-18T06:36:05;5.85;;;3.85;;
11827;SDS011;5971;49.646;8.568;2022-08-18T06:39:31;7.85;;;3.67;;
11827;SDS011;5971;49.646;8.568;2022-08-18T06:42:35;8.45;;;3.67;;
11827;SDS011;5971;49.646;8.568;2022-08-18T06:45:40;6.78;;;3.80;;
11827;SDS011;5971;49.646;8.568;2022-08-18T06:51:49;7.35;;;4.00;;
11827;SDS011;5971;49.646;8.568;2022-08-18T06:54:52;7.97;;;4.15;;
11827;SDS011;5971;49.646;8.568;2022-08-18T06:57:55;7.63;;;3.70;;
11827;SDS011;5971;49.646;8.568;2022-08-18T07:01:03;11.20;;;4.20;;
11827;SDS011;5971;49.646;8.568;2022-08-18T07:04:05;7.47;;;4.30;;
11827;SDS011;5971;49.646;8.568;2022-08-18T07:13:17;7.00;;;4.05;;
11827;SDS011;5971;49.646;8.568;2022-08-18T07:16:24;6.97;;;3.83;;
11827;SDS011;5971;49.646;8.568;2022-08-18T07:19:49;7.05;;;4.35;;
11827;SDS011;5971;49.646;8.568;2022-08-18T07:29:14;7.07;;;4.60;;
11827;SDS011;5971;49.646;8.568;2022-08-18T07:32:17;6.97;;;4.07;;
11827;SDS011;5971;49.646;8.568;2022-08-18T07:35:34;8.07;;;3.75;;
11827;SDS011;5971;49.646;8.568;2022-08-18T07:38:38;7.68;;;4.32;;
11827;SDS011;5971;49.646;8.568;2022-08-18T07:45:08;6.18;;;3.95;;
11827;SDS011;5971;49.646;8.568;2022-08-18T07:55:31;6.45;;;3.35;;
11827;SDS011;5971;49.646;8.568;2022-08-18T07:58:36;6.40;;;4.10;;
11827;SDS011;5971;49.646;8.568;2022-08-18T08:01:46;6.63;;;4.00;;
11827;SDS011;5971;49.646;8.568;2022-08-18T08:07:57;6.60;;;3.72;;
11827;SDS011;5971;49.646;8.568;2022-08-18T08:20:26;7.80;;;3.80;;
11827;SDS011;5971;49.646;8.568;2022-08-18T08:23:35;7.65;;;4.63;;
11827;SDS011;5971;49.646;8.568;2022-08-18T08:30:11;7.32;;;4.15;;
11827;SDS011;5971;49.646;8.568;2022-08-18T08:33:25;6.63;;;4.00;;
11827;SDS011;5971;49.646;8.568;2022-08-18T08:36:32;7.85;;;4.05;;
11827;SDS011;5971;49.646;8.568;2022-08-18T08:39:36;7.88;;;4.50;;
11827;SDS011;5971;49.646;8.568;2022-08-18T08:45:59;6.93;;;4.28;;
11827;SDS011;5971;49.646;8.568;2022-08-18T08:49:07;7.80;;;4.20;;
11827;SDS011;5971;49.646;8.568;2022-08-18T08:58:36;8.10;;;4.82;;
11827;SDS011;5971;49.646;8.568;2022-08-18T09:01:42;7.75;;;4.57;;
11827;SDS011;5971;49.646;8.568;2022-08-18T09:04:46;8.38;;;4.43;;
11827;SDS011;5971;49.646;8.568;2022-08-18T09:08:11;7.72;;;4.45;;
11827;SDS011;5971;49.646;8.568;2022-08-18T09:14:41;8.73;;;5.55;;
11827;SDS011;5971;49.646;8.568;2022-08-18T09:24:21;7.50;;;4.68;;
11827;SDS011;5971;49.646;8.568;2022-08-18T09:27:40;8.02;;;5.43;;
11827;SDS011;5971;49.646;8.568;2022-08-18T09:34:21;7.22;;;4.40;;
11827;SDS011;5971;49.646;8.568;2022-08-18T09:40:27;8.13;;;4.75;;
11827;SDS011;5971;49.646;8.568;2022-08-18T09:44:04;8.75;;;5.25;;
11827;SDS011;5971;49.646;8.568;2022-08-18T09:50:31;10.65;;;5.32;;
11827;SDS011;5971;49.646;8.568;2022-08-18T10:03:08;8.55;;;5.07;;
11827;SDS011;5971;49.646;8.568;2022-08-18T10:06:13;10.80;;;5.57;;
11827;SDS011;5971;49.646;8.568;2022-08-18T10:12:49;9.00;;;5.28;;
11827;SDS011;5971;49.646;8.568;2022-08-18T10:15:58;9.57;;;5.15;;
11827;SDS011;5971;49.646;8.568;2022-08-18T10:19:38;10.63;;;6.65;;
11827;SDS011;5971;49.646;8.568;2022-08-18T10:22:43;9.30;;;5.88;;
11827;SDS011;5971;49.646;8.568;2022-08-18T10:25:46;10.00;;;5.50;;
11827;SDS011;5971;49.646;8.568;2022-08-18T10:28:52;11.07;;;6.35;;
11827;SDS011;5971;49.646;8.568;2022-08-18T10:34:58;10.40;;;5.95;;
11827;SDS011;5971;49.646;8.568;2022-08-18T10:38:01;11.32;;;6.30;;
11827;SDS011;5971;49.646;8.568;2022-08-18T10:41:04;10.02;;;5.85;;
11827;SDS011;5971;49.646;8.568;2022-08-18T10:44:16;9.27;;;6.38;;
11827;SDS011;5971;49.646;8.568;2022-08-18T10:47:39;11.50;;;5.90;;
11827;SDS011;5971;49.646;8.568;2022-08-18T10:50:47;9.30;;;5.78;;
11827;SDS011;5971;49.646;8.568;2022-08-18T10:53:57;11.63;;;6.57;;
11827;SDS011;5971;49.646;8.568;2022-08-18T11:00:11;9.88;;;6.18;;
11827;SDS011;5971;49.646;8.568;2022-08-18T11:03:19;11.52;;;6.50;;
11827;SDS011;5971;49.646;8.568;2022-08-18T11:06:43;11.10;;;6.30;;
11827;SDS011;5971;49.646;8.568;2022-08-18T11:09:48;10.40;;;6.57;;
11827;SDS011;5971;49.646;8.568;2022-08-18T11:19:34;9.82;;;6.68;;
11827;SDS011;5971;49.646;8.568;2022-08-18T11:22:50;12.32;;;7.13;;
11827;SDS011;5971;49.646;8.568;2022-08-18T11:25:52;10.85;;;6.57;;
11827;SDS011;5971;49.646;8.568;2022-08-18T11:28:54;11.27;;;7.32;;
11827;SDS011;5971;49.646;8.568;2022-08-18T11:32:19;11.65;;;6.57;;
11827;SDS011;5971;49.646;8.568;2022-08-18T11:35:19;9.77;;;6.53;;
11827;SDS011;5971;49.646;8.568;2022-08-18T11:38:21;11.20;;;6.80;;
11827;SDS011;5971;49.646;8.568;2022-08-18T11:41:25;11.23;;;6.78;;
11827;SDS011;5971;49.646;8.568;2022-08-18T11:44:46;9.40;;;6.60;;
11827;SDS011;5971;49.646;8.568;2022-08-18T11:51:16;10.73;;;7.43;;
11827;SDS011;5971;49.646;8.568;2022-08-18T11:54:32;10.60;;;7.05;;
11827;SDS011;5971;49.646;8.568;2022-08-18T11:57:38;10.18;;;7.30;;
11827;SDS011;5971;49.646;8.568;2022-08-18T12:01:00;10.00;;;7.80;;
11827;SDS011;5971;49.646;8.568;2022-08-18T12:04:13;10.00;;;7.10;;
11827;SDS011;5971;49.646;8.568;2022-08-18T12:07:16;10.93;;;7.35;;
11827;SDS011;5971;49.646;8.568;2022-08-18T12:10:27;11.30;;;7.82;;
11827;SDS011;5971;49.646;8.568;2022-08-18T12:13:29;12.65;;;9.18;;
11827;SDS011;5971;49.646;8.568;2022-08-18T12:19:33;11.00;;;8.35;;
11827;SDS011;5971;49.646;8.568;2022-08-18T12:22:35;11.95;;;8.50;;
11827;SDS011;5971;49.646;8.568;2022-08-18T12:25:37;12.25;;;8.75;;
11827;SDS011;5971;49.646;8.568;2022-08-18T12:28:39;11.73;;;7.78;;
11827;SDS011;5971;49.646;8.568;2022-08-18T12:31:40;12.80;;;8.70;;
11827;SDS011;5971;49.646;8.568;2022-08-18T12:34:48;13.50;;;9.63;;
11827;SDS011;5971;49.646;8.568;2022-08-18T12:37:51;13.48;;;9.68;;
11827;SDS011;5971;49.646;8.568;2022-08-18T12:41:12;13.35;;;9.77;;
11827;SDS011;5971;49.646;8.568;2022-08-18T12:44:23;13.43;;;9.43;;
11827;SDS011;5971;49.646;8.568;2022-08-18T12:47:27;14.48;;;10.90;;
11827;SDS011;5971;49.646;8.568;2022-08-18T12:50:49;15.27;;;11.85;;
11827;SDS011;5971;49.646;8.568;2022-08-18T12:54:11;14.77;;;10.48;;
11827;SDS011;5971;49.646;8.568;2022-08-18T12:57:20;15.30;;;11.90;;
11827;SDS011;5971;49.646;8.568;2022-08-18T13:03:43;13.88;;;10.32;;
11827;SDS011;5971;49.646;8.568;2022-08-18T13:07:05;16.65;;;10.95;;
11827;SDS011;5971;49.646;8.568;2022-08-18T13:10:08;13.85;;;9.82;;
11827;SDS011;5971;49.646;8.568;2022-08-18T13:13:30;12.98;;;9.82;;
11827;SDS011;5971;49.646;8.568;2022-08-18T13:16:32;17.63;;;11.30;;
11827;SDS011;5971;49.646;8.568;2022-08-18T13:19:54;14.40;;;10.10;;
11827;SDS011;5971;49.646;8.568;2022-08-18T13:22:56;13.85;;;9.80;;
11827;SDS011;5971;49.646;8.568;2022-08-18T13:25:58;14.30;;;10.52;;
11827;SDS011;5971;49.646;8.568;2022-08-18T13:29:03;14.18;;;10.60;;
11827;SDS011;5971;49.646;8.568;2022-08-18T13:32:10;11.88;;;9.70;;
11827;SDS011;5971;49.646;8.568;2022-08-18T13:35:12;13.30;;;9.50;;
11827;SDS011;5971;49.646;8.568;2022-08-18T13:38:14;14.13;;;9.40;;
11827;SDS011;5971;49.646;8.568;2022-08-18T13:41:26;12.52;;;9.40;;
11827;SDS011;5971;49.646;8.568;2022-08-18T13:44:32;14.27;;;9.88;;
11827;SDS011;5971;49.646;8.568;2022-08-18T13:47:34;13.73;;;8.90;;
11827;SDS011;5971;49.646;8.568;2022-08-18T13:50:38;11.68;;;8.18;;
11827;SDS011;5971;49.646;8.568;2022-08-18T13:53:41;11.43;;;8.20;;
11827;SDS011;5971;49.646;8.568;2022-08-18T14:00:00;9.65;;;7.88;;
11827;SDS011;5971;49.646;8.568;2022-08-18T14:03:01;7.70;;;6.20;;
11827;SDS011;5971;49.646;8.568;2022-08-18T14:06:03;9.30;;;6.80;;
11827;SDS011;5971;49.646;8.568;2022-08-18T14:09:07;8.65;;;6.20;;
11827;SDS011;5971;49.646;8.568;2022-08-18T14:12:21;8.40;;;5.45;;
11827;SDS011;5971;49.646;8.568;2022-08-18T14:15:28;7.47;;;6.68;;
11827;SDS011;5971;49.646;8.568;2022-08-18T14:18:31;7.53;;;5.85;;
11827;SDS011;5971;49.646;8.568;2022-08-18T14:21:34;7.95;;;6.07;;
11827;SDS011;5971;49.646;8.568;2022-08-18T14:24:55;7.03;;;5.45;;
11827;SDS011;5971;49.646;8.568;2022-08-18T14:28:22;8.25;;;6.43;;
11827;SDS011;5971;49.646;8.568;2022-08-18T14:31:25;7.10;;;5.97;;
11827;SDS011;5971;49.646;8.568;2022-08-18T14:34:28;7.55;;;6.07;;
11827;SDS011;5971;49.646;8.568;2022-08-18T14:37:29;7.40;;;5.55;;
11827;SDS011;5971;49.646;8.568;2022-08-18T14:40:33;7.43;;;5.82;;
11827;SDS011;5971;49.646;8.568;2022-08-18T14:43:42;6.57;;;5.25;;
11827;SDS011;5971;49.646;8.568;2022-08-18T14:47:05;7.30;;;5.68;;
11827;SDS011;5971;49.646;8.568;2022-08-18T14:50:08;7.15;;;5.43;;
11827;SDS011;5971;49.646;8.568;2022-08-18T14:53:16;7.15;;;5.20;;
11827;SDS011;5971;49.646;8.568;2022-08-18T14:56:20;6.75;;;5.05;;
11827;SDS011;5971;49.646;8.568;2022-08-18T14:59:22;7.30;;;5.13;;
11827;SDS011;5971;49.646;8.568;2022-08-18T15:02:25;6.68;;;4.75;;
11827;SDS011;5971;49.646;8.568;2022-08-18T15:05:27;5.88;;;4.40;;
11827;SDS011;5971;49.646;8.568;2022-08-18T15:08:35;6.70;;;5.15;;
11827;SDS011;5971;49.646;8.568;2022-08-18T15:11:36;6.57;;;4.50;;
11827;SDS011;5971;49.646;8.568;2022-08-18T15:15:00;6.25;;;4.18;;
11827;SDS011;5971;49.646;8.568;2022-08-18T15:18:02;6.68;;;5.20;;
11827;SDS011;5971;49.646;8.568;2022-08-18T15:21:10;6.38;;;4.70;;
11827;SDS011;5971;49.646;8.568;2022-08-18T15:24:39;6.68;;;4.90;;
11827;SDS011;5971;49.646;8.568;2022-08-18T15:27:59;6.53;;;4.13;;
11827;SDS011;5971;49.646;8.568;2022-08-18T15:31:01;6.45;;;4.90;;
11827;SDS011;5971;49.646;8.568;2022-08-18T15:34:23;6.10;;;4.32;;
11827;SDS011;5971;49.646;8.568;2022-08-18T15:37:27;6.45;;;4.50;;
11827;SDS011;5971;49.646;8.568;2022-08-18T15:40:29;6.72;;;4.03;;
11827;SDS011;5971;49.646;8.568;2022-08-18T15:43:36;5.65;;;4.07;;
11827;SDS011;5971;49.646;8.568;2022-08-18T15:46:46;5.22;;;4.05;;
11827;SDS011;5971;49.646;8.568;2022-08-18T15:49:53;5.55;;;4.20;;
11827;SDS011;5971;49.646;8.568;2022-08-18T15:52:56;6.47;;;4.53;;
11827;SDS011;5971;49.646;8.568;2022-08-18T15:55:58;6.10;;;4.65;;
11827;SDS011;5971;49.646;8.568;2022-08-18T15:59:04;7.00;;;4.72;;
11827;SDS011;5971;49.646;8.568;2022-08-18T16:02:08;7.57;;;5.10;;
11827;SDS011;5971;49.646;8.568;2022-08-18T16:05:12;7.68;;;5.03;;
11827;SDS011;5971;49.646;8.568;2022-08-18T16:08:14;7.68;;;4.75;;
11827;SDS011;5971;49.646;8.568;2022-08-18T16:11:17;8.02;;;4.88;;
11827;SDS011;5971;49.646;8.568;2022-08-18T16:14:29;6.93;;;4.88;;
11827;SDS011;5971;49.646;8.568;2022-08-18T16:17:32;8.70;;;5.50;;
11827;SDS011;5971;49.646;8.568;2022-08-18T16:20:34;7.50;;;5.05;;
11827;SDS011;5971;49.646;8.568;2022-08-18T16:23:37;6.70;;;4.85;;
11827;SDS011;5971;49.646;8.568;2022-08-18T16:26:38;5.78;;;4.25;;
11827;SDS011;5971;49.646;8.568;2022-08-18T16:29:39;6.10;;;4.15;;
11827;SDS011;5971;49.646;8.568;2022-08-18T16:32:41;5.38;;;3.35;;
11827;SDS011;5971;49.646;8.568;2022-08-18T16:35:42;6.10;;;3.78;;
11827;SDS011;5971;49.646;8.568;2022-08-18T16:38:45;5.30;;;3.83;;
11827;SDS011;5971;49.646;8.568;2022-08-18T16:41:47;5.28;;;3.83;;
11827;SDS011;5971;49.646;8.568;2022-08-18T16:44:48;6.18;;;4.15;;
11827;SDS011;5971;49.646;8.568;2022-08-18T16:47:50;5.97;;;3.72;;
11827;SDS011;5971;49.646;8.568;2022-08-18T16:50:51;5.40;;;3.67;;
11827;SDS011;5971;49.646;8.568;2022-08-18T16:53:53;6.20;;;4.07;;
11827;SDS011;5971;49.646;8.568;2022-08-18T16:56:54;6.93;;;3.90;;
11827;SDS011;5971;49.646;8.568;2022-08-18T16:59:57;6.35;;;4.45;;
11827;SDS011;5971;49.646;8.568;2022-08-18T17:03:18;6.03;;;3.70;;
11827;SDS011;5971;49.646;8.568;2022-08-18T17:06:38;5.53;;;3.63;;
11827;SDS011;5971;49.646;8.568;2022-08-18T17:09:47;5.50;;;3.50;;
11827;SDS011;5971;49.646;8.568;2022-08-18T17:12:49;7.45;;;4.07;;
11827;SDS011;5971;49.646;8.568;2022-08-18T17:15:50;5.85;;;3.95;;
11827;SDS011;5971;49.646;8.568;2022-08-18T17:18:52;6.28;;;4.43;;
11827;SDS011;5971;49.646;8.568;2022-08-18T17:21:54;5.43;;;4.07;;
11827;SDS011;5971;49.646;8.568;2022-08-18T17:24:56;7.45;;;5.40;;
11827;SDS011;5971;49.646;8.568;2022-08-18T17:28:00;6.57;;;4.13;;
11827;SDS011;5971;49.646;8.568;2022-08-18T17:31:05;6.90;;;4.57;;
11827;SDS011;5971;49.646;8.568;2022-08-18T17:34:07;6.97;;;4.38;;
11827;SDS011;5971;49.646;8.568;2022-08-18T17:37:13;7.10;;;4.30;;
11827;SDS011;5971;49.646;8.568;2022-08-18T17:40:16;8.35;;;5.13;;
11827;SDS011;5971;49.646;8.568;2022-08-18T17:43:19;9.52;;;5.35;;
11827;SDS011;5971;49.646;8.568;2022-08-18T17:49:32;9.55;;;5.80;;
11827;SDS011;5971;49.646;8.568;2022-08-18T17:53:06;10.30;;;6.05;;
11827;SDS011;5971;49.646;8.568;2022-08-18T17:56:21;9.60;;;5.30;;
11827;SDS011;5971;49.646;8.568;2022-08-18T18:02:51;9.00;;;5.50;;
11827;SDS011;5971;49.646;8.568;2022-08-18T18:05:54;9.40;;;5.38;;
11827;SDS011;5971;49.646;8.568;2022-08-18T18:08:59;9.48;;;5.28;;
11827;SDS011;5971;49.646;8.568;2022-08-18T18:12:17;9.23;;;5.18;;
11827;SDS011;5971;49.646;8.568;2022-08-18T18:15:39;9.35;;;5.60;;
11827;SDS011;5971;49.646;8.568;2022-08-18T18:21:42;8.95;;;5.35;;
11827;SDS011;5971;49.646;8.568;2022-08-18T18:25:02;8.93;;;5.60;;
11827;SDS011;5971;49.646;8.568;2022-08-18T18:28:06;7.78;;;4.72;;
11827;SDS011;5971;49.646;8.568;2022-08-18T18:31:25;9.15;;;5.05;;
11827;SDS011;5971;49.646;8.568;2022-08-18T18:37:29;9.00;;;5.07;;
11827;SDS011;5971;49.646;8.568;2022-08-18T18:43:36;9.35;;;5.45;;
11827;SDS011;5971;49.646;8.568;2022-08-18T18:49:45;8.68;;;6.22;;
11827;SDS011;5971;49.646;8.568;2022-08-18T18:56:06;8.50;;;4.78;;
11827;SDS011;5971;49.646;8.568;2022-08-18T19:02:23;10.05;;;5.43;;
11827;SDS011;5971;49.646;8.568;2022-08-18T19:05:45;9.88;;;5.35;;
11827;SDS011;5971;49.646;8.568;2022-08-18T19:08:51;9.48;;;5.03;;
11827;SDS011;5971;49.646;8.568;2022-08-18T19:15:05;10.50;;;5.93;;
11827;SDS011;5971;49.646;8.568;2022-08-18T19:18:13;9.55;;;5.55;;
11827;SDS011;5971;49.646;8.568;2022-08-18T19:21:22;10.48;;;5.93;;
11827;SDS011;5971;49.646;8.568;2022-08-18T19:24:57;10.50;;;5.63;;
11827;SDS011;5971;49.646;8.568;2022-08-18T19:28:08;10.82;;;5.78;;
11827;SDS011;5971;49.646;8.568;2022-08-18T19:31:17;10.57;;;5.68;;
11827;SDS011;5971;49.646;8.568;2022-08-18T19:34:24;10.80;;;5.47;;
11827;SDS011;5971;49.646;8.568;2022-08-18T19:41:03;10.20;;;5.35;;
11827;SDS011;5971;49.646;8.568;2022-08-18T19:47:09;10.30;;;5.72;;
11827;SDS011;5971;49.646;8.568;2022-08-18T19:53:23;10.07;;;6.30;;
11827;SDS011;5971;49.646;8.568;2022-08-18T20:15:55;9.88;;;5.38;;
11827;SDS011;5971;49.646;8.568;2022-08-18T20:18:58;9.50;;;5.47;;
11827;SDS011;5971;49.646;8.568;2022-08-18T20:22:01;9.90;;;5.07;;
11827;SDS011;5971;49.646;8.568;2022-08-18T20:28:19;10.02;;;6.03;;
11827;SDS011;5971;49.646;8.568;2022-08-18T20:31:20;11.15;;;5.72;;
11827;SDS011;5971;49.646;8.568;2022-08-18T20:34:23;10.80;;;5.97;;
11827;SDS011;5971;49.646;8.568;2022-08-18T20:37:25;9.20;;;5.47;;
11827;SDS011;5971;49.646;8.568;2022-08-18T20:40:41;14.15;;;6.07;;
11827;SDS011;5971;49.646;8.568;2022-08-18T20:43:43;10.00;;;5.70;;
11827;SDS011;5971;49.646;8.568;2022-08-18T20:46:51;9.52;;;5.78;;
11827;SDS011;5971;49.646;8.568;2022-08-18T20:53:32;9.77;;;5.40;;
11827;SDS011;5971;49.646;8.568;2022-08-18T20:56:40;12.55;;;5.95;;
11827;SDS011;5971;49.646;8.568;2022-08-18T20:59:48;12.55;;;5.78;;
11827;SDS011;5971;49.646;8.568;2022-08-18T21:02:54;10.57;;;5.53;;
11827;SDS011;5971;49.646;8.568;2022-08-18T21:05:56;8.13;;;5.93;;
11827;SDS011;5971;49.646;8.568;2022-08-18T21:08:58;9.23;;;5.13;;
11827;SDS011;5971;49.646;8.568;2022-08-18T21:11:59;10.32;;;6.25;;
11827;SDS011;5971;49.646;8.568;2022-08-18T21:15:05;8.77;;;5.40;;
11827;SDS011;5971;49.646;8.568;2022-08-18T21:18:15;10.45;;;5.63;;
11827;SDS011;5971;49.646;8.568;2022-08-18T21:21:22;10.32;;;5.65;;
11827;SDS011;5971;49.646;8.568;2022-08-18T21:27:32;10.05;;;5.60;;
11827;SDS011;5971;49.646;8.568;2022-08-18T21:30:36;9.23;;;5.55;;
11827;SDS011;5971;49.646;8.568;2022-08-18T21:33:38;10.93;;;6.70;;
11827;SDS011;5971;49.646;8.568;2022-08-18T21:36:52;9.73;;;5.20;;
11827;SDS011;5971;49.646;8.568;2022-08-18T21:39:56;12.95;;;6.15;;
11827;SDS011;5971;49.646;8.568;2022-08-18T21:42:57;10.85;;;6.38;;
11827;SDS011;5971;49.646;8.568;2022-08-18T21:45:59;10.93;;;6.30;;
11827;SDS011;5971;49.646;8.568;2022-08-18T21:49:02;11.02;;;7.20;;
11827;SDS011;5971;49.646;8.568;2022-08-18T21:52:04;9.90;;;6.05;;
11827;SDS011;5971;49.646;8.568;2022-08-18T21:55:14;8.80;;;5.35;;
11827;SDS011;5971;49.646;8.568;2022-08-18T21:58:26;9.93;;;5.80;;
11827;SDS011;5971;49.646;8.568;2022-08-18T22:01:35;10.55;;;6.45;;
11827;SDS011;5971;49.646;8.568;2022-08-18T22:04:41;9.52;;;5.20;;
11827;SDS011;5971;49.646;8.568;2022-08-18T22:07:46;10.40;;;5.70;;